Time;durP1;ratioP1;P1;durP2;ratioP2;P2;SDS_P1;SDS_P2;PMS_P1;PMS_P2;Temp;Humidity;BMP_temperature;BMP_pressure;BME280_temperature;BME280_humidity;BME280_pressure;Samples;Min_cycle;Max_cycle;Signal;HPM_P1;HPM_P2
2022/08/07 00:03:30;;;;;;;4.72;2.87;;;;;;;14.99;77.43;101373.08;3162605;88;21180;-73
2022/08/07 00:08:21;;;;;;;4.37;3.27;;;;;;;14.93;77.12;101373.00;3197407;86;21092;-73
2022/08/07 00:13:20;;;;;;;5.92;2.42;;;;;;;14.84;76.94;101368.14;3171721;87;21756;-73
2022/08/07 00:18:17;;;;;;;4.33;2.30;;;;;;;14.75;76.76;101371.95;3205395;87;21192;-73
2022/08/07 00:23:09;;;;;;;4.50;2.85;;;;;;;14.68;76.68;101364.89;3318940;82;20989;-73
2022/08/07 00:28:03;;;;;;;5.45;2.60;;;;;;;14.62;76.77;101376.63;3314887;82;21030;-73
2022/08/07 00:33:06;;;;;;;4.55;2.72;;;;;;;14.52;76.60;101373.41;3325335;82;21013;-73
2022/08/07 00:38:00;;;;;;;4.80;2.37;;;;;;;14.41;76.65;101376.78;3337238;82;21459;-73
2022/08/07 00:42:59;;;;;;;3.42;2.47;;;;;;;14.30;76.38;101387.55;3327363;83;21035;-73
2022/08/07 00:47:52;;;;;;;2.52;2.20;;;;;;;14.15;76.47;101381.71;3326445;83;21499;-73
2022/08/07 00:52:44;;;;;;;3.52;2.72;;;;;;;14.00;76.50;101382.80;3285363;83;20958;-73
2022/08/07 00:57:37;;;;;;;3.62;2.42;;;;;;;13.84;76.75;101388.24;3293460;82;21002;-73
2022/08/07 01:02:30;;;;;;;3.50;2.55;;;;;;;13.80;76.89;101391.68;3322552;83;21109;-73
2022/08/07 01:07:22;;;;;;;6.65;2.60;;;;;;;13.71;76.89;101390.67;3348599;82;21517;-73
2022/08/07 01:12:16;;;;;;;7.12;2.40;;;;;;;13.59;76.74;101387.88;3330285;83;21175;-73
2022/08/07 01:17:22;;;;;;;2.87;2.40;;;;;;;13.52;76.87;101383.41;3324568;83;21544;-73
2022/08/07 01:22:21;;;;;;;2.42;2.22;;;;;;;13.45;76.77;101380.25;3313782;83;21492;-73
2022/08/07 01:27:15;;;;;;;4.53;2.62;;;;;;;13.40;76.84;101388.47;3319252;81;38951;-73
2022/08/07 01:32:33;;;;;;;4.12;3.12;;;;;;;13.33;76.71;101392.70;3359905;82;22001;-73
2022/08/07 01:37:27;;;;;;;3.92;2.62;;;;;;;13.27;76.60;101388.23;3357435;83;21001;-73
2022/08/07 01:42:21;;;;;;;3.45;2.50;;;;;;;13.19;76.47;101395.05;3318625;82;21001;-72
2022/08/07 01:47:14;;;;;;;3.40;2.22;;;;;;;13.10;76.36;101392.28;3322463;82;20992;-73
2022/08/07 01:52:09;;;;;;;2.62;2.30;;;;;;;13.00;76.22;101390.35;3330426;82;21041;-73
2022/08/07 01:57:09;;;;;;;5.80;2.33;;;;;;;12.90;76.19;101382.36;3349263;82;21168;-73
2022/08/07 02:02:06;;;;;;;3.40;2.62;;;;;;;12.76;75.88;101379.49;3329908;83;21024;-73
2022/08/07 02:07:02;;;;;;;4.10;2.40;;;;;;;12.58;75.97;101388.29;3356727;83;22059;-72
2022/08/07 02:12:17;;;;;;;4.42;2.33;;;;;;;12.53;76.23;101396.01;3324039;83;21515;-73
2022/08/07 02:17:14;;;;;;;3.95;2.95;;;;;;;12.48;76.24;101395.03;3353442;82;20919;-72
2022/08/07 02:22:35;;;;;;;3.40;2.40;;;;;;;12.43;76.22;101394.09;3283186;83;23461;-72
2022/08/07 02:27:28;;;;;;;2.10;1.95;;;;;;;12.35;76.01;101393.05;3330158;83;21002;-73
2022/08/07 02:32:22;;;;;;;2.05;1.87;;;;;;;12.17;76.04;101397.02;3370666;82;21026;-73
2022/08/07 02:37:18;;;;;;;2.98;2.15;;;;;;;12.10;76.11;101395.12;3364785;83;21073;-73
2022/08/07 02:42:20;;;;;;;3.23;2.13;;;;;;;12.06;76.25;101399.83;3363303;83;21051;-73
2022/08/07 02:47:17;;;;;;;4.08;2.30;;;;;;;12.01;75.96;101395.80;3345492;82;21868;-73
2022/08/07 02:52:15;;;;;;;3.50;2.60;;;;;;;11.88;75.87;101391.58;3321010;83;21710;-73
2022/08/07 02:58:32;;;;;;;3.75;2.30;;;;;;;11.86;76.06;101395.45;3303935;83;21089;-74
2022/08/07 03:02:57;;;;;;;2.08;1.90;;;;;;;11.83;75.97;101400.58;3252631;84;20975;-73
2022/08/07 03:07:52;;;;;;;2.55;1.80;;;;;;;11.75;75.69;101400.42;3233983;84;21111;-73
2022/08/07 03:12:46;;;;;;;1.98;1.80;;;;;;;11.68;75.74;101399.82;3210200;84;21073;-73
2022/08/07 03:17:42;;;;;;;2.42;2.22;;;;;;;11.58;75.68;101405.64;3254620;85;21087;-73
2022/08/07 03:22:53;;;;;;;2.60;2.10;;;;;;;11.54;75.96;101404.69;3281147;83;21069;-73
2022/08/07 03:27:50;;;;;;;1.85;1.75;;;;;;;11.56;75.85;101403.43;3256272;84;21616;-73
2022/08/07 03:32:46;;;;;;;2.85;2.08;;;;;;;11.52;75.83;101404.17;3245412;85;20990;-73
2022/08/07 03:37:43;;;;;;;2.20;2.00;;;;;;;11.46;75.75;101401.01;3324902;83;21010;-73
2022/08/07 03:42:43;;;;;;;3.77;2.20;;;;;;;11.47;75.87;101405.82;3341086;82;20962;-74
2022/08/07 03:47:37;;;;;;;2.67;2.12;;;;;;;11.48;75.89;101401.92;3352681;82;21520;-74
2022/08/07 03:52:37;;;;;;;2.90;2.27;;;;;;;11.51;75.99;101403.73;3337231;83;21004;-74
2022/08/07 03:57:34;;;;;;;2.55;2.35;;;;;;;11.53;75.96;101407.26;3354193;83;21570;-74
2022/08/07 04:02:28;;;;;;;3.65;2.87;;;;;;;11.55;76.01;101411.64;3357083;83;21599;-74
2022/08/07 04:07:22;;;;;;;3.70;3.40;;;;;;;11.52;75.82;101411.99;3368884;83;21554;-74
2022/08/07 04:12:41;;;;;;;5.22;3.27;;;;;;;11.55;76.09;101417.28;3350317;83;21656;-74
2022/08/07 04:18:13;;;;;;;;;;;;;;;;;;;;;
2022/08/07 04:22:53;;;;;;;5.35;3.35;;;;;;;12.04;76.07;101434.10;3343332;83;21086;-74
2022/08/07 04:33:14;;;;;;;3.00;2.65;;;;;;;12.53;75.42;101431.22;3311686;83;21057;-74
2022/08/07 04:38:09;;;;;;;5.12;3.00;;;;;;;12.38;75.49;101433.53;3341840;82;21623;-74
2022/08/07 04:43:05;;;;;;;3.22;2.42;;;;;;;12.24;75.66;101440.19;3316028;83;21527;-74
2022/08/07 04:48:08;;;;;;;6.55;3.35;;;;;;;12.18;75.90;101440.94;3274168;84;20902;-74
2022/08/07 04:53:15;;;;;;;4.03;2.75;;;;;;;12.14;76.26;101449.11;3368611;82;21098;-74
2022/08/07 04:58:28;;;;;;;2.95;2.75;;;;;;;12.13;76.49;101452.98;3356449;81;22008;-73
2022/08/07 05:03:51;;;;;;;4.55;3.17;;;;;;;12.09;76.84;101450.73;3340452;83;21113;-74
2022/08/07 05:08:55;;;;;;;6.22;3.27;;;;;;;12.06;77.09;101466.29;3356575;83;21112;-74
2022/08/07 05:14:02;;;;;;;6.40;4.10;;;;;;;12.10;77.63;101461.59;3393197;82;21531;-74
2022/08/07 05:19:12;;;;;;;6.40;3.20;;;;;;;12.22;77.87;101470.56;3377222;82;21010;-74
2022/08/07 05:29:43;;;;;;;3.42;3.08;;;;;;;12.50;78.79;101472.92;3182927;87;21014;-74
2022/08/07 05:35:18;;;;;;;;;;;;;;;;;;;;;
2022/08/07 05:40:16;;;;;;;3.55;2.92;;;;;;;12.82;79.22;101480.50;3190129;85;22322;-74
2022/08/07 05:45:11;;;;;;;3.02;2.83;;;;;;;13.00;79.20;101484.33;3167497;85;21615;-74
2022/08/07 05:50:05;;;;;;;7.10;3.17;;;;;;;13.16;79.18;101481.15;3203005;86;21090;-74
2022/08/07 05:54:58;;;;;;;4.87;2.58;;;;;;;13.30;79.44;101479.67;3179346;83;21020;-74
2022/08/07 06:00:51;;;;;;;4.33;2.67;;;;;;;13.46;79.15;101485.20;3331586;83;21010;-75
2022/08/07 06:05:47;;;;;;;2.95;2.30;;;;;;;13.64;79.13;101477.67;3343573;82;20980;-74
2022/08/07 06:11:14;;;;;;;4.72;2.27;;;;;;;13.89;78.29;101472.84;3339882;82;21117;-74
2022/08/07 06:16:33;;;;;;;;;;;;;;;;;;;;;
2022/08/07 06:27:46;;;;;;;2.05;1.30;;;;;;;17.71;70.49;101466.59;3182913;87;21642;-75
2022/08/07 06:49:54;;;;;;;2.75;0.90;;;;;;;21.14;63.22;101480.38;3047748;91;21496;-75
2022/08/07 10:00:12;;;;;;;;;;;;;;;;;;;;;
2022/08/07 10:05:59;;;;;;;1.17;1.05;;;;;;;27.01;40.13;101409.45;3369476;82;21022;-76
2022/08/07 10:11:15;;;;;;;;;;;;;;;;;;;;;
2022/08/07 10:16:43;;;;;;;2.15;0.68;;;;;;;31.81;34.89;101404.83;3193977;86;21000;-76
2022/08/07 10:22:24;;;;;;;0.90;0.78;;;;;;;33.09;32.10;101407.91;3096307;89;22093;-76
2022/08/07 10:27:35;;;;;;;1.30;0.67;;;;;;;34.82;32.07;101401.58;3107636;89;21553;-75
2022/08/07 10:33:20;;;;;;;0.70;0.70;;;;;;;36.20;31.28;101391.40;3049622;90;22597;-75
2022/08/07 10:38:54;;;;;;;3.45;0.90;;;;;;;36.88;28.89;101389.91;3051772;90;21143;-75
2022/08/07 10:44:52;;;;;;;;;;;;;;;;;;;;;
2022/08/07 10:55:30;;;;;;;1.45;1.35;;;;;;;36.13;26.65;101390.61;3163871;87;21047;-75
2022/08/07 11:00:40;;;;;;;1.15;0.90;;;;;;;36.38;27.78;101380.91;3275655;82;21069;-75
2022/08/07 11:11:53;;;;;;;1.42;1.15;;;;;;;36.86;27.10;101364.77;3275708;83;21569;-75
2022/08/07 11:17:16;;;;;;;;;;;;;;;;;;;;;
2022/08/07 11:22:59;;;;;;;2.75;1.37;;;;;;;35.07;26.98;101375.41;3067298;90;21037;-75
2022/08/07 11:28:50;;;;;;;;;;;;;;;;;;;;;
2022/08/07 11:34:05;;;;;;;0.75;0.75;;;;;;;34.96;25.92;101367.28;3094281;91;21128;-75
2022/08/07 11:45:14;;;;;;;1.22;0.90;;;;;;;33.61;27.29;101349.13;3083832;91;21019;-74
2022/08/07 11:50:58;;;;;;;;;;;;;;;;;;;;;
2022/08/07 11:56:05;;;;;;;1.95;0.80;;;;;;;30.50;28.43;101357.94;3180122;87;21152;-75
2022/08/07 12:31:09;;;;;;;0.53;0.53;;;;;;;28.01;32.71;101325.52;3176294;87;21000;-75
2022/08/07 12:42:17;;;;;;;0.60;0.60;;;;;;;27.70;32.43;101314.84;3049940;91;21140;-75
2022/08/07 13:50:44;;;;;;;1.75;0.72;;;;;;;27.04;32.67;101268.83;3169971;87;21072;-75
2022/08/07 14:07:41;;;;;;;;;;;;;;;;;;;;;
2022/08/07 14:13:13;;;;;;;;;;;;;;;;;;;;;
2022/08/07 14:41:05;;;;;;;2.37;0.98;;;;;;;27.05;32.54;101235.89;2897260;94;21101;-75
2022/08/07 14:46:00;;;;;;;1.98;1.00;;;;;;;26.97;32.25;101234.42;2908142;94;21217;-76
2022/08/07 14:51:11;;;;;;;0.90;0.83;;;;;;;26.93;32.36;101230.13;2951379;94;21006;-75
2022/08/07 14:56:28;;;;;;;0.93;0.82;;;;;;;27.03;33.63;101225.75;2988808;93;21191;-75
2022/08/07 15:01:40;;;;;;;;;;;;;;;;;;;;;
2022/08/07 15:06:30;;;;;;;0.65;0.65;;;;;;;27.07;32.88;101210.00;3114180;90;21068;-76
2022/08/07 15:11:30;;;;;;;1.77;1.00;;;;;;;27.24;32.95;101216.79;3093297;89;21112;-75
2022/08/07 15:16:40;;;;;;;1.10;0.95;;;;;;;27.05;32.37;101211.87;3070833;90;21077;-75
2022/08/07 15:21:36;;;;;;;1.47;1.15;;;;;;;26.22;33.74;101216.19;3047686;91;21599;-75
2022/08/07 15:45:46;;;;;;;1.10;0.90;;;;;;;26.05;35.78;101204.89;2967997;93;21191;-75
2022/08/07 16:21:31;;;;;;;1.57;1.10;;;;;;;25.84;35.28;101185.27;2887500;96;21069;-75
2022/08/07 16:50:37;;;;;;;1.27;1.00;;;;;;;24.73;36.98;101186.22;3043979;92;21133;-72
2022/08/07 17:06:58;;;;;;;1.45;1.20;;;;;;;24.02;38.61;101189.42;3190561;89;27002;-73
2022/08/07 17:12:43;;;;;;;3.15;1.20;;;;;;;23.77;38.81;101183.53;3185007;83;20998;-74
2022/08/07 18:33:09;;;;;;;4.25;2.05;;;;;;;18.98;50.85;101238.75;3373932;82;21060;-75
2022/08/07 18:38:19;;;;;;;5.05;2.00;;;;;;;18.79;51.45;101239.77;3337927;82;28686;-74
2022/08/07 18:43:22;;;;;;;6.87;2.62;;;;;;;18.61;51.98;101242.98;3301394;83;20966;-75
2022/08/07 18:48:44;;;;;;;3.77;2.02;;;;;;;18.45;52.65;101243.98;3369539;82;21252;-74
2022/08/07 18:54:21;;;;;;;3.72;2.17;;;;;;;18.28;53.15;101260.77;3359765;83;20998;-74
2022/08/07 18:59:38;;;;;;;5.58;2.45;;;;;;;18.10;53.58;101266.16;3348699;83;20956;-74
2022/08/07 19:05:07;;;;;;;2.37;2.15;;;;;;;17.80;54.22;101267.14;3359890;82;21547;-74
2022/08/07 19:10:11;;;;;;;11.57;6.45;;;;;;;17.62;54.92;101269.40;3249818;86;21765;-74
2022/08/07 19:15:26;;;;;;;16.20;7.47;;;;;;;17.47;55.59;101270.30;3198189;86;22043;-75
2022/08/07 19:20:31;;;;;;;13.78;7.85;;;;;;;17.33;56.00;101269.91;3215534;86;22230;-74
2022/08/07 19:25:25;;;;;;;13.80;7.45;;;;;;;17.12;56.62;101272.13;3245522;86;21066;-74
2022/08/07 19:30:18;;;;;;;12.80;6.25;;;;;;;17.08;57.06;101269.08;3212656;85;21077;-75
2022/08/07 19:35:24;;;;;;;9.83;7.05;;;;;;;17.04;57.39;101275.63;3214215;86;21080;-75
2022/08/07 19:40:18;;;;;;;16.77;10.20;;;;;;;16.98;57.75;101275.66;3210623;86;21619;-74
2022/08/07 19:45:19;;;;;;;11.15;8.08;;;;;;;16.81;58.03;101274.29;3257923;83;21081;-74
2022/08/07 19:50:12;;;;;;;7.62;5.25;;;;;;;16.54;58.40;101268.14;3326803;83;21225;-75
2022/08/07 19:55:09;;;;;;;6.70;4.42;;;;;;;16.35;58.85;101272.06;3332847;82;21080;-74
2022/08/07 20:00:05;;;;;;;5.50;3.73;;;;;;;16.26;59.45;101270.73;3329469;83;21029;-74
2022/08/07 20:05:02;;;;;;;5.97;3.80;;;;;;;16.14;59.63;101274.19;3321242;83;21096;-74
2022/08/07 20:09:55;;;;;;;6.10;3.13;;;;;;;16.07;59.85;101275.05;3287845;82;21077;-75
2022/08/07 20:14:50;;;;;;;5.53;3.00;;;;;;;16.07;60.01;101275.49;3247731;84;21002;-75
2022/08/07 20:19:45;;;;;;;5.20;3.00;;;;;;;15.87;60.30;101285.47;3273134;84;21343;-74
2022/08/07 20:24:39;;;;;;;8.75;3.75;;;;;;;15.79;60.69;101285.86;3248775;85;20991;-75
2022/08/07 20:29:52;;;;;;;5.35;3.98;;;;;;;15.75;60.88;101282.34;3267641;85;21531;-75
2022/08/07 20:34:47;;;;;;;6.90;4.42;;;;;;;15.70;61.06;101283.16;3362504;83;21799;-74
2022/08/07 20:39:41;;;;;;;5.42;4.17;;;;;;;15.60;61.08;101280.50;3320749;83;20959;-74
2022/08/07 20:44:39;;;;;;;3.65;3.35;;;;;;;15.47;61.18;101285.25;3316073;82;20990;-74
2022/08/07 20:49:33;;;;;;;;;;;;;;;15.40;61.51;101287.39;3369696;83;21025;-75
2022/08/07 20:54:28;;;;;;;4.42;3.70;;;;;;;15.35;61.93;101286.48;3328798;83;21062;-74
2022/08/07 20:59:25;;;;;;;4.05;3.75;;;;;;;15.24;61.94;101292.96;3319204;83;20981;-74
2022/08/07 21:04:21;;;;;;;4.65;3.08;;;;;;;15.08;62.01;101291.97;3278172;83;20971;-74
2022/08/07 21:09:17;;;;;;;3.67;3.30;;;;;;;15.06;62.36;101284.54;3328082;83;20985;-74
2022/08/07 21:14:14;;;;;;;4.95;3.58;;;;;;;15.02;62.60;101277.09;3355346;82;20935;-74
2022/08/07 21:19:10;;;;;;;2.90;2.70;;;;;;;14.93;62.42;101281.36;3339428;83;21128;-74
2022/08/07 21:24:23;;;;;;;4.10;3.67;;;;;;;14.83;62.60;101276.05;3290716;83;21022;-74
2022/08/07 21:29:24;;;;;;;6.62;4.37;;;;;;;14.75;62.96;101276.85;3322967;82;20976;-74
2022/08/07 21:34:37;;;;;;;7.47;4.15;;;;;;;14.65;63.06;101279.83;3349342;83;20954;-74
2022/08/07 21:39:55;;;;;;;5.22;3.30;;;;;;;14.60;63.16;101284.14;3369139;82;21024;-74
2022/08/07 21:45:08;;;;;;;6.50;3.00;;;;;;;14.49;63.26;101295.34;3344506;82;21236;-74
2022/08/07 21:50:06;;;;;;;4.22;3.33;;;;;;;14.47;63.45;101289.22;3333549;83;21520;-74
2022/08/07 21:55:20;;;;;;;5.65;3.17;;;;;;;14.46;63.50;101291.37;3353164;83;21053;-74
2022/08/07 22:00:17;;;;;;;5.12;3.52;;;;;;;14.37;63.54;101293.03;3288860;83;21045;-74
2022/08/07 22:05:18;;;;;;;4.60;2.77;;;;;;;14.33;63.66;101289.51;3316537;83;21413;-74
2022/08/07 22:10:15;;;;;;;3.85;2.10;;;;;;;14.23;63.74;101290.26;3355883;82;21506;-73
2022/08/07 22:15:23;;;;;;;2.17;1.98;;;;;;;14.09;63.84;101288.38;3312956;83;20972;-74
2022/08/07 22:20:43;;;;;;;3.10;2.15;;;;;;;14.00;64.05;101303.93;3304026;83;21034;-74
2022/08/07 22:25:56;;;;;;;2.40;2.20;;;;;;;13.93;64.23;101302.09;3319471;82;21381;-73
2022/08/07 22:31:06;;;;;;;3.67;2.27;;;;;;;13.85;64.36;101307.23;3343673;83;21119;-74
2022/08/07 22:36:13;;;;;;;2.77;2.42;;;;;;;13.71;64.38;101303.13;3203318;87;21076;-73
2022/08/07 22:41:17;;;;;;;2.27;2.02;;;;;;;13.63;64.65;101303.47;3204188;85;21030;-73
2022/08/07 22:46:44;;;;;;;4.45;2.65;;;;;;;13.50;64.81;101296.30;3192657;87;21168;-74
2022/08/07 22:51:51;;;;;;;2.97;2.67;;;;;;;13.47;65.18;101297.59;3200409;87;21161;-73
2022/08/07 22:57:17;;;;;;;3.13;2.53;;;;;;;13.42;65.22;101301.43;3207550;87;21106;-74
2022/08/07 23:02:35;;;;;;;5.03;2.72;;;;;;;13.33;65.44;101303.91;3207544;87;21070;-73
2022/08/07 23:07:59;;;;;;;3.42;2.62;;;;;;;13.32;65.63;101308.67;3174552;87;21577;-74
2022/08/07 23:13:08;;;;;;;3.42;3.12;;;;;;;13.30;65.65;101309.91;3196545;86;21092;-74
2022/08/07 23:18:40;;;;;;;3.95;2.90;;;;;;;13.21;65.74;101307.17;3214370;86;21187;-74
2022/08/07 23:23:55;;;;;;;3.20;2.75;;;;;;;13.19;65.91;101308.88;3307861;83;20951;-74
2022/08/07 23:29:24;;;;;;;3.95;2.52;;;;;;;13.07;65.92;101312.59;3329743;83;21552;-74
2022/08/07 23:34:50;;;;;;;2.70;2.47;;;;;;;13.03;66.06;101314.72;3314983;83;21570;-74
2022/08/07 23:40:00;;;;;;;3.35;2.95;;;;;;;12.90;66.17;101318.42;3358892;82;21803;-74
2022/08/07 23:45:24;;;;;;;3.70;2.90;;;;;;;12.86;66.29;101325.76;3371314;82;20996;-73
2022/08/07 23:50:57;;;;;;;3.85;2.87;;;;;;;12.79;66.58;101326.50;3335663;83;21012;-74
2022/08/07 23:56:16;;;;;;;4.12;2.87;;;;;;;12.75;66.77;101322.06;3336209;82;22390;-74
